createdAt,value
2022-07-25T00:02:41.063Z,11.90
2022-07-25T00:07:34.741Z,7.95
2022-07-25T00:12:28.540Z,9.18
2022-07-25T00:17:21.093Z,8.10
2022-07-25T00:22:14.809Z,7.07
2022-07-25T00:27:08.752Z,8.02
2022-07-25T00:32:03.417Z,8.85
2022-07-25T00:36:57.689Z,8.48
2022-07-25T00:41:51.800Z,9.80
2022-07-25T00:46:45.380Z,8.65
2022-07-25T00:51:40.333Z,8.57
2022-07-25T00:56:34.485Z,8.15
2022-07-25T01:01:28.786Z,8.15
2022-07-25T01:06:22.550Z,9.10
2022-07-25T01:11:18.201Z,8.25
2022-07-25T01:16:12.384Z,8.85
2022-07-25T01:21:07.763Z,8.85
2022-07-25T01:26:02.561Z,8.10
2022-07-25T01:30:56.511Z,9.35
2022-07-25T01:35:50.748Z,9.70
2022-07-25T01:40:45.053Z,10.70
2022-07-25T01:45:39.220Z,10.57
2022-07-25T01:50:32.373Z,11.00
2022-07-25T01:55:26.581Z,11.20
2022-07-25T02:00:23.061Z,13.30
2022-07-25T02:05:17.332Z,11.80
2022-07-25T02:10:12.313Z,11.70
2022-07-25T02:15:07.350Z,13.55
2022-07-25T02:20:01.749Z,13.32
2022-07-25T02:24:56.339Z,17.38
2022-07-25T02:29:50.321Z,16.23
2022-07-25T02:34:43.924Z,14.73
2022-07-25T02:39:38.295Z,14.82
2022-07-25T02:44:32.485Z,14.23
2022-07-25T02:49:26.388Z,12.80
2022-07-25T02:54:22.873Z,14.18
2022-07-25T02:59:17.086Z,14.13
2022-07-25T03:04:10.577Z,13.65
2022-07-25T03:09:13.446Z,12.55
2022-07-25T03:14:17.608Z,13.30
2022-07-25T03:19:16.649Z,14.95
2022-07-25T03:24:21.085Z,13.77
2022-07-25T03:29:22.472Z,13.50
2022-07-25T03:34:25.526Z,13.95
2022-07-25T03:39:26.122Z,14.90
2022-07-25T03:44:28.402Z,18.92
2022-07-25T03:49:29.018Z,12.57
2022-07-25T03:54:30.629Z,13.02
2022-07-25T03:59:32.278Z,12.15
2022-07-25T04:04:32.668Z,12.02
2022-07-25T04:09:36.294Z,11.27
2022-07-25T04:14:41.110Z,13.23
2022-07-25T04:19:41.602Z,13.07
2022-07-25T04:24:44.149Z,12.48
2022-07-25T04:29:43.597Z,11.73
2022-07-25T04:34:48.747Z,12.57
2022-07-25T04:39:48.880Z,12.40
2022-07-25T04:44:43.991Z,11.93
2022-07-25T04:49:38.518Z,11.52
2022-07-25T04:54:33.206Z,12.35
2022-07-25T04:59:27.482Z,12.45
2022-07-25T05:04:21.525Z,12.25
2022-07-25T05:09:15.510Z,11.25
2022-07-25T05:14:10.077Z,12.45
2022-07-25T05:19:04.632Z,12.13
2022-07-25T05:24:03.133Z,12.32
2022-07-25T05:33:50.424Z,13.43
2022-07-25T05:38:44.501Z,14.02
2022-07-25T05:43:38.969Z,12.50
2022-07-25T05:48:33.107Z,11.52
2022-07-25T05:53:28.890Z,10.90
2022-07-25T05:58:27.507Z,11.52
2022-07-25T06:03:23.838Z,10.80
2022-07-25T06:08:18.135Z,11.63
2022-07-25T06:13:12.085Z,11.88
2022-07-25T06:19:41.623Z,10.93
2022-07-25T06:24:34.692Z,12.98
2022-07-25T06:29:29.238Z,11.32
2022-07-25T06:34:28.277Z,9.52
2022-07-25T06:39:22.726Z,10.48
2022-07-25T06:44:16.952Z,9.77
2022-07-25T06:49:11.001Z,10.18
2022-07-25T06:54:06.334Z,10.68
2022-07-25T06:59:01.398Z,11.05
2022-07-25T07:03:55.031Z,11.68
2022-07-25T07:08:49.242Z,10.65
2022-07-25T07:13:42.519Z,11.18
2022-07-25T07:18:36.511Z,10.57
2022-07-25T07:23:29.671Z,11.60
2022-07-25T07:28:22.906Z,10.65
2022-07-25T07:33:17.025Z,10.57
2022-07-25T07:38:10.354Z,11.27
2022-07-25T07:43:04.349Z,10.23
2022-07-25T07:47:59.044Z,9.70
2022-07-25T07:52:53.337Z,11.40
2022-07-25T07:57:48.122Z,10.45
2022-07-25T08:02:48.667Z,10.57
2022-07-25T08:07:43.226Z,9.98
2022-07-25T08:12:41.109Z,9.43
2022-07-25T08:17:35.412Z,10.05
2022-07-25T08:22:39.715Z,10.07
2022-07-25T08:27:34.268Z,7.75
2022-07-25T08:32:31.866Z,9.52
2022-07-25T08:37:26.105Z,8.70
2022-07-25T08:42:23.101Z,9.40
2022-07-25T08:52:10.810Z,8.07
2022-07-25T08:57:04.952Z,9.18
2022-07-25T09:02:01.496Z,9.27
2022-07-25T09:11:50.937Z,7.90
2022-07-25T09:16:46.101Z,6.97
2022-07-25T09:21:41.020Z,6.13
2022-07-25T09:26:49.277Z,6.03
2022-07-25T09:31:43.827Z,5.43
2022-07-25T09:36:40.680Z,5.50
2022-07-25T09:41:37.342Z,5.18
2022-07-25T09:46:34.238Z,4.93
2022-07-25T09:51:29.503Z,4.78
2022-07-25T09:56:24.573Z,4.88
2022-07-25T10:01:23.764Z,4.88
2022-07-25T10:06:37.611Z,4.82
2022-07-25T10:11:31.772Z,4.47
2022-07-25T10:16:26.842Z,5.50
2022-07-25T10:26:21.113Z,3.70
2022-07-25T10:31:32.858Z,4.40
2022-07-25T10:36:34.457Z,3.65
2022-07-25T10:41:29.311Z,3.90
2022-07-25T10:46:24.380Z,3.70
2022-07-25T10:51:30.678Z,4.60
2022-07-25T10:56:26.532Z,3.50
2022-07-25T11:01:28.920Z,3.88
2022-07-25T11:06:40.307Z,3.80
2022-07-25T11:11:36.885Z,3.80
2022-07-25T11:16:31.012Z,3.60
2022-07-25T11:21:24.332Z,3.30
2022-07-25T11:26:18.114Z,3.70
2022-07-25T11:31:12.288Z,3.63
2022-07-25T11:36:06.870Z,4.15
2022-07-25T11:41:02.856Z,3.35
2022-07-25T11:46:06.894Z,4.10
2022-07-25T11:51:19.486Z,4.00
2022-07-25T11:56:40.890Z,3.80
2022-07-25T12:01:39.803Z,4.35
2022-07-25T12:06:33.620Z,4.40
2022-07-25T12:11:27.651Z,4.32
2022-07-25T12:16:21.426Z,4.20
2022-07-25T12:27:07.065Z,4.95
2022-07-25T12:32:20.359Z,4.03
2022-07-25T12:37:14.601Z,3.90
2022-07-25T12:42:08.403Z,4.05
2022-07-25T12:47:03.163Z,4.28
2022-07-25T12:51:58.266Z,5.03
2022-07-25T13:01:45.269Z,5.45
2022-07-25T13:06:39.669Z,5.97
2022-07-25T13:11:34.772Z,5.82
2022-07-25T13:16:29.323Z,5.77
2022-07-25T13:21:24.055Z,5.93
2022-07-25T13:26:19.226Z,5.63
2022-07-25T13:31:13.476Z,6.13
2022-07-25T13:36:08.087Z,6.43
2022-07-25T13:41:03.126Z,7.20
2022-07-25T13:45:57.855Z,5.53
2022-07-25T13:50:51.728Z,6.00
2022-07-25T13:55:46.548Z,6.10
2022-07-25T14:00:39.679Z,6.20
2022-07-25T14:05:33.241Z,6.13
2022-07-25T14:10:27.609Z,5.00
2022-07-25T14:15:20.489Z,5.30
2022-07-25T14:20:14.999Z,5.70
2022-07-25T14:25:10.169Z,5.50
2022-07-25T14:30:04.919Z,5.80
2022-07-25T14:35:01.309Z,6.35
2022-07-25T14:39:58.230Z,6.63
2022-07-25T14:44:52.333Z,6.20
2022-07-25T14:49:46.361Z,6.05
2022-07-25T14:54:41.129Z,6.50
2022-07-25T14:59:34.581Z,6.65
2022-07-25T15:04:28.454Z,6.75
2022-07-25T15:09:22.736Z,6.90
2022-07-25T15:14:17.295Z,6.07
2022-07-25T15:19:16.578Z,6.13
2022-07-25T15:24:11.710Z,5.95
2022-07-25T15:29:09.829Z,6.20
2022-07-25T15:34:03.671Z,6.35
2022-07-25T15:38:57.090Z,7.07
2022-07-25T15:43:50.808Z,6.95
2022-07-25T15:48:45.369Z,6.95
2022-07-25T15:53:40.509Z,6.63
2022-07-25T15:58:33.861Z,6.80
2022-07-25T16:03:27.831Z,7.07
2022-07-25T16:08:21.821Z,6.65
2022-07-25T16:13:15.800Z,5.97
2022-07-25T16:18:09.886Z,6.15
2022-07-25T16:23:04.379Z,7.60
2022-07-25T16:27:58.995Z,6.45
2022-07-25T16:32:53.437Z,7.10
2022-07-25T16:37:48.042Z,6.38
2022-07-25T16:42:42.207Z,6.00
2022-07-25T16:47:37.227Z,6.47
2022-07-25T16:52:31.289Z,7.45
2022-07-25T16:57:25.164Z,7.47
2022-07-25T17:02:20.488Z,6.38
2022-07-25T17:07:18.076Z,6.43
2022-07-25T17:12:11.892Z,6.95
2022-07-25T17:17:06.553Z,7.22
2022-07-25T17:22:00.478Z,7.65
2022-07-25T17:26:54.677Z,7.53
2022-07-25T17:31:49.503Z,8.68
2022-07-25T17:36:44.396Z,8.32
2022-07-25T17:41:38.201Z,8.50
2022-07-25T17:46:32.731Z,7.70
2022-07-25T17:51:29.645Z,7.35
2022-07-25T17:56:25.835Z,8.25
2022-07-25T18:01:26.278Z,8.25
2022-07-25T18:06:29.872Z,8.38
2022-07-25T18:11:25.475Z,8.45
2022-07-25T18:16:23.694Z,7.95
2022-07-25T18:21:20.049Z,7.47
2022-07-25T18:26:16.895Z,8.70
2022-07-25T18:31:17.591Z,8.15
2022-07-25T18:36:17.859Z,8.88
2022-07-25T18:41:31.366Z,8.93
2022-07-25T18:46:28.092Z,8.35
2022-07-25T18:51:28.076Z,7.67
2022-07-25T18:56:25.861Z,8.30
2022-07-25T19:01:26.458Z,7.07
2022-07-25T19:06:21.752Z,8.93
2022-07-25T19:11:16.278Z,8.93
2022-07-25T19:16:11.956Z,8.57
2022-07-25T19:21:06.933Z,7.93
2022-07-25T19:26:02.552Z,10.48
2022-07-25T19:30:57.395Z,9.70
2022-07-25T19:35:52.397Z,9.38
2022-07-25T19:40:47.193Z,8.20
2022-07-25T19:45:41.032Z,7.70
2022-07-25T19:50:35.226Z,8.30
2022-07-25T19:55:29.471Z,8.55
2022-07-25T20:00:24.045Z,8.75
2022-07-25T20:05:20.454Z,9.13
2022-07-25T20:10:18.136Z,8.80
2022-07-25T20:15:21.151Z,7.78
2022-07-25T20:20:19.109Z,7.38
2022-07-25T20:25:17.210Z,6.88
2022-07-25T20:30:16.269Z,7.30
2022-07-25T20:35:13.125Z,7.78
2022-07-25T20:40:11.269Z,8.18
2022-07-25T20:45:11.992Z,7.20
2022-07-25T20:50:11.680Z,7.15
2022-07-25T20:55:15.069Z,7.53
2022-07-25T21:00:18.224Z,10.27
2022-07-25T21:05:19.142Z,12.48
2022-07-25T21:10:17.422Z,13.45
2022-07-25T21:15:12.969Z,11.25
2022-07-25T21:20:09.022Z,10.45
2022-07-25T21:25:02.833Z,8.10
2022-07-25T21:29:57.141Z,7.85
2022-07-25T21:34:52.427Z,6.65
2022-07-25T21:39:46.324Z,6.45
2022-07-25T21:44:40.668Z,6.65
2022-07-25T21:49:53.402Z,7.07
2022-07-25T21:54:49.140Z,6.13
2022-07-25T21:59:43.102Z,6.28
2022-07-25T22:04:36.372Z,5.90
2022-07-25T22:09:30.335Z,6.00
2022-07-25T22:14:25.239Z,6.05
2022-07-25T22:19:22.376Z,5.63
2022-07-25T22:24:16.220Z,5.70
2022-07-25T22:29:11.312Z,5.95
2022-07-25T22:34:06.012Z,7.13
2022-07-25T22:39:00.061Z,6.18
2022-07-25T22:43:57.008Z,5.65
2022-07-25T22:48:53.274Z,6.95
2022-07-25T22:53:46.924Z,6.47
2022-07-25T22:58:40.277Z,6.35
2022-07-25T23:03:33.728Z,6.30
2022-07-25T23:08:27.234Z,6.38
2022-07-25T23:13:20.507Z,5.68
2022-07-25T23:18:15.159Z,6.35
2022-07-25T23:23:13.080Z,6.95
2022-07-25T23:28:07.193Z,6.18
2022-07-25T23:33:00.725Z,6.07
2022-07-25T23:37:54.769Z,7.03
2022-07-25T23:42:48.023Z,7.10
2022-07-25T23:47:42.209Z,6.68
2022-07-25T23:52:38.302Z,7.97
2022-07-25T23:57:32.085Z,9.60
